CCY5 weather

Edmundston (Regional Hospital) Heliport
Edmundston, New Brunswick, Canada

Public forecast

Using degrees Celsius for public forecast. Weather courtesy of forecast.io.

Closest aviation weather report (METAR) to Edmundston (Regional Hospital) Heliport

Closest report is Northern Aroostook Regional Airport, 5.5 nm (10.1 km) S. Retrieved 2019/12/10 10:01 UTC (42 minutes ago):

KFVE 101001Z AUTO 19007KT 9SM FEW002 OVC019 06/06 A2938 RMK AO2 T00610056

Closest aviation forecast (TAF) to Edmundston (Regional Hospital) Heliport

Closest forecast is Northern Aroostook Regional Airport, 5.5 nm (10.1 km) S. Retrieved 2019/12/10 06:48 UTC (4 hours ago):

TAF KFVE 100545Z 1006/1106 17011KT 1/2SM -RA FG OVC003 WS020/22050KT FM100900 20011KT 2SM BR OVC004 WS020/24040KT FM101600 22013G23KT P6SM BKN010 WS020/23040KT FM101900 24015G27KT P6SM BKN025 WS020/24040KT FM110300 29014G25KT P6SM VCSH BKN025